Terminal Aerodrome Forecast
Issued by NWS

Home | Current Version | Previous Version | Graphics & Text | Print | Product List | Glossary On
Versions: 1 2 3 4 5 6 7 8 9 10 11 12 13 14 15 16 17 18 19 20 21 22 23 24 25 26
000
FTUS43 KLOT 170255 AAA
TAFORD
TAF AMD
KORD 170255Z 1703/1806 17009KT P6SM SCT250
     FM171000 21007KT P6SM BKN045
     FM171400 25009KT P6SM BKN040 BKN120 PROB30 1714/1717 -SHRA
     FM172000 32009KT P6SM SCT020 BKN035
     FM180200 34007KT P6SM SCT250=

USA.gov is the U.S. government's official web portal to all federal, state and local government web resources and services.